createdAt,value
2023-02-27T00:03:58.445Z,0.03
2023-02-27T00:09:00.451Z,0.02
2023-02-27T00:14:02.415Z,0.00
2023-02-27T00:19:04.529Z,-0.01
2023-02-27T00:24:07.135Z,-0.02
2023-02-27T00:29:09.501Z,-0.01
2023-02-27T00:34:11.833Z,-0.02
2023-02-27T00:39:15.294Z,-0.05
2023-02-27T00:44:17.452Z,-0.09
2023-02-27T00:49:20.370Z,-0.12
2023-02-27T00:54:22.308Z,-0.14
2023-02-27T00:59:26.606Z,-0.14
2023-02-27T01:04:28.767Z,-0.14
2023-02-27T01:09:30.791Z,-0.13
2023-02-27T01:14:32.827Z,-0.15
2023-02-27T01:19:34.799Z,-0.15
2023-02-27T01:24:37.057Z,-0.15
2023-02-27T01:29:39.002Z,-0.15
2023-02-27T01:34:41.225Z,-0.16
2023-02-27T01:39:43.281Z,-0.20
2023-02-27T01:45:07.265Z,-0.23
2023-02-27T01:50:10.755Z,-0.26
2023-02-27T01:55:14.002Z,-0.29
2023-02-27T02:00:17.023Z,-0.31
2023-02-27T02:05:20.767Z,-0.31
2023-02-27T02:10:22.934Z,-0.30
2023-02-27T02:15:35.928Z,-0.30
2023-02-27T02:21:15.973Z,-0.30
2023-02-27T02:26:33.428Z,-0.31
2023-02-27T02:31:42.019Z,-0.31
2023-02-27T02:37:13.885Z,-0.31
2023-02-27T02:42:48.678Z,-0.32
2023-02-27T02:47:55.902Z,-0.33
2023-02-27T02:53:11.155Z,-0.34
2023-02-27T02:58:39.413Z,-0.35
2023-02-27T03:03:51.278Z,-0.36
2023-02-27T03:08:58.004Z,-0.37
2023-02-27T03:14:20.127Z,-0.38
2023-02-27T03:19:27.617Z,-0.37
2023-02-27T03:24:32.229Z,-0.36
2023-02-27T03:29:44.544Z,-0.34
2023-02-27T03:34:47.757Z,-0.34
2023-02-27T03:39:54.956Z,-0.36
2023-02-27T03:45:13.669Z,-0.40
2023-02-27T03:50:16.525Z,-0.45
2023-02-27T03:55:32.432Z,-0.51
2023-02-27T04:00:34.698Z,-0.57
2023-02-27T04:05:36.922Z,-0.64
2023-02-27T04:11:03.787Z,-0.72
2023-02-27T04:16:24.527Z,-0.79
2023-02-27T04:21:41.477Z,-0.88
2023-02-27T04:26:49.728Z,-0.94
2023-02-27T04:32:02.270Z,-1.01
2023-02-27T04:37:10.284Z,-1.07
2023-02-27T04:42:17.581Z,-1.15
2023-02-27T04:47:22.985Z,-1.26
2023-02-27T04:52:33.936Z,-1.36
2023-02-27T04:58:04.170Z,-1.40
2023-02-27T05:03:17.741Z,-1.42
2023-02-27T05:08:39.257Z,-1.45
2023-02-27T05:13:47.692Z,-1.48
2023-02-27T05:18:50.889Z,-1.51
2023-02-27T05:24:34.597Z,-1.55
2023-02-27T05:29:54.673Z,-1.60
2023-02-27T05:35:27.447Z,-1.64
2023-02-27T05:40:38.952Z,-1.70
2023-02-27T05:45:45.720Z,-1.75
2023-02-27T05:50:51.344Z,-1.81
2023-02-27T05:55:58.717Z,-1.84
2023-02-27T06:01:06.663Z,-1.83
2023-02-27T06:06:14.952Z,-1.78
2023-02-27T06:11:17.654Z,-1.67
2023-02-27T06:16:19.818Z,-1.52
2023-02-27T06:21:21.795Z,-1.35
2023-02-27T06:26:24.081Z,-1.18
2023-02-27T06:31:27.086Z,-1.02
2023-02-27T06:36:29.889Z,-0.85
2023-02-27T06:41:32.166Z,-0.67
2023-02-27T06:46:34.217Z,-0.48
2023-02-27T06:51:36.691Z,-0.27
2023-02-27T06:56:38.785Z,-0.03
2023-02-27T07:01:40.967Z,0.24
2023-02-27T07:07:33.977Z,0.61
2023-02-27T07:12:06.076Z,1.02
2023-02-27T07:17:08.179Z,1.25
2023-02-27T07:22:18.233Z,1.37
2023-02-27T07:27:22.479Z,1.51
2023-02-27T07:32:24.688Z,1.74
2023-02-27T07:37:30.505Z,1.95
2023-02-27T07:42:34.056Z,2.15
2023-02-27T07:47:39.363Z,2.35
2023-02-27T07:52:43.679Z,2.53
2023-02-27T07:57:46.100Z,2.51
2023-02-27T08:02:49.475Z,2.36
2023-02-27T08:07:52.350Z,2.28
2023-02-27T08:12:58.008Z,2.26
2023-02-27T08:18:00.545Z,2.36
2023-02-27T08:23:12.676Z,2.57
2023-02-27T08:28:16.443Z,2.74
2023-02-27T08:33:30.126Z,2.86
2023-02-27T08:38:32.985Z,2.72
2023-02-27T08:43:37.647Z,2.83
2023-02-27T08:48:42.462Z,3.36
2023-02-27T08:53:44.615Z,4.71
2023-02-27T08:58:46.969Z,5.74
2023-02-27T09:03:49.014Z,6.60
2023-02-27T09:08:51.404Z,7.14
2023-02-27T09:13:54.471Z,7.52
2023-02-27T09:18:57.039Z,7.85
2023-02-27T09:24:07.383Z,7.55
2023-02-27T09:29:21.060Z,7.44
2023-02-27T09:34:23.113Z,7.13
2023-02-27T09:39:26.183Z,6.21
2023-02-27T09:44:45.787Z,5.49
2023-02-27T09:50:06.430Z,4.59
2023-02-27T09:55:17.622Z,4.02
2023-02-27T10:00:32.103Z,3.49
2023-02-27T10:06:07.219Z,3.20
2023-02-27T10:11:16.420Z,3.13
2023-02-27T10:16:21.225Z,3.07
2023-02-27T10:21:41.708Z,2.95
2023-02-27T10:26:46.216Z,2.85
2023-02-27T10:31:59.217Z,2.79
2023-02-27T10:37:05.503Z,3.10
2023-02-27T10:42:11.439Z,3.21
2023-02-27T10:47:16.514Z,2.99
2023-02-27T10:52:18.831Z,2.93
2023-02-27T10:57:32.975Z,2.95
2023-02-27T11:02:37.048Z,3.01
2023-02-27T11:07:39.671Z,3.12
2023-02-27T11:13:06.436Z,3.21
2023-02-27T11:18:28.935Z,3.31
2023-02-27T11:23:33.891Z,3.33
2023-02-27T11:28:38.830Z,3.36
2023-02-27T11:33:51.586Z,3.19
2023-02-27T11:38:55.611Z,2.98
2023-02-27T11:44:00.337Z,2.88
2023-02-27T11:49:20.454Z,2.89
2023-02-27T11:54:49.705Z,2.94
2023-02-27T12:00:06.875Z,2.97
2023-02-27T12:05:11.970Z,2.94
2023-02-27T12:10:20.885Z,2.81
2023-02-27T12:15:32.815Z,2.79
2023-02-27T12:20:40.426Z,2.96
2023-02-27T12:25:57.130Z,3.10
2023-02-27T12:31:21.565Z,3.13
2023-02-27T12:36:23.833Z,3.20
2023-02-27T12:41:41.381Z,3.24
2023-02-27T12:47:05.339Z,3.16
2023-02-27T12:52:20.190Z,2.95
2023-02-27T12:58:03.905Z,2.94
2023-02-27T13:03:34.351Z,3.07
2023-02-27T13:09:11.034Z,3.09
2023-02-27T13:14:26.267Z,3.04
2023-02-27T13:19:58.337Z,2.98
2023-02-27T13:25:05.644Z,2.95
2023-02-27T13:30:12.232Z,2.86
2023-02-27T13:35:21.227Z,2.81
2023-02-27T13:40:39.211Z,2.78
2023-02-27T13:45:56.755Z,2.78
2023-02-27T13:51:00.703Z,2.77
2023-02-27T13:56:23.300Z,2.81
2023-02-27T14:01:28.299Z,2.82
2023-02-27T14:06:31.499Z,2.84
2023-02-27T14:11:39.654Z,2.85
2023-02-27T14:16:41.945Z,2.87
2023-02-27T14:21:49.874Z,2.91
2023-02-27T14:26:53.444Z,2.95
2023-02-27T14:31:56.244Z,2.98
2023-02-27T14:37:02.110Z,3.03
2023-02-27T14:42:26.189Z,3.01
2023-02-27T14:47:36.707Z,2.90
2023-02-27T14:52:43.202Z,2.75
2023-02-27T14:58:08.397Z,2.68
2023-02-27T15:03:21.944Z,2.74
2023-02-27T15:08:30.685Z,2.76
2023-02-27T15:13:38.545Z,2.72
2023-02-27T15:18:41.394Z,2.70
2023-02-27T15:23:45.982Z,2.64
2023-02-27T15:28:51.846Z,2.65
2023-02-27T15:33:55.389Z,2.71
2023-02-27T15:39:06.827Z,2.65
2023-02-27T15:44:12.879Z,2.50
2023-02-27T15:49:21.416Z,2.29
2023-02-27T15:54:32.421Z,2.12
2023-02-27T15:59:42.969Z,1.93
2023-02-27T16:04:46.692Z,1.73
2023-02-27T16:09:55.940Z,1.53
2023-02-27T16:15:26.308Z,1.38
2023-02-27T16:20:31.206Z,1.17
2023-02-27T16:25:33.444Z,1.05
2023-02-27T16:30:40.456Z,0.91
2023-02-27T16:35:43.775Z,0.78
2023-02-27T16:40:46.275Z,0.65
2023-02-27T16:45:51.986Z,0.53
2023-02-27T16:50:56.927Z,0.38
2023-02-27T16:56:02.223Z,0.22
2023-02-27T17:01:05.119Z,0.05
2023-02-27T17:06:09.585Z,-0.10
2023-02-27T17:11:11.706Z,-0.24
2023-02-27T17:16:15.130Z,-0.35
2023-02-27T17:21:17.794Z,-0.47
2023-02-27T17:26:19.861Z,-0.54
2023-02-27T17:31:22.753Z,-0.57
2023-02-27T17:36:25.711Z,-0.61
2023-02-27T17:41:30.651Z,-0.65
2023-02-27T17:46:33.222Z,-0.73
2023-02-27T17:51:37.134Z,-0.82
2023-02-27T17:56:39.245Z,-0.88
2023-02-27T18:01:41.643Z,-0.88
2023-02-27T18:06:44.068Z,-0.90
2023-02-27T18:11:47.353Z,-0.97
2023-02-27T18:16:49.856Z,-1.08
2023-02-27T18:21:55.126Z,-1.22
2023-02-27T18:26:58.073Z,-1.39
2023-02-27T18:32:01.423Z,-1.59
2023-02-27T18:37:04.121Z,-1.79
2023-02-27T18:42:06.854Z,-1.95
2023-02-27T18:47:09.428Z,-2.12
2023-02-27T18:52:11.877Z,-2.25
2023-02-27T18:57:17.151Z,-2.38
2023-02-27T19:02:20.772Z,-2.47
2023-02-27T19:07:23.615Z,-2.52
2023-02-27T19:12:27.683Z,-2.59
2023-02-27T19:17:30.270Z,-2.68
2023-02-27T19:22:32.757Z,-2.74
2023-02-27T19:27:41.218Z,-2.81
2023-02-27T19:32:43.298Z,-2.89
2023-02-27T19:37:47.692Z,-2.94
2023-02-27T19:42:51.001Z,-2.97
2023-02-27T19:47:53.425Z,-3.00
2023-02-27T19:52:55.436Z,-2.98
2023-02-27T19:57:58.314Z,-2.97
2023-02-27T20:03:00.970Z,-3.02
2023-02-27T20:08:03.682Z,-3.07
2023-02-27T20:13:05.834Z,-3.06
2023-02-27T20:18:09.275Z,-3.02
2023-02-27T20:23:15.018Z,-3.07
2023-02-27T20:28:16.911Z,-3.13
2023-02-27T20:33:19.086Z,-3.19
2023-02-27T20:38:22.398Z,-3.23
2023-02-27T20:43:24.725Z,-3.29
2023-02-27T20:48:26.708Z,-3.36
2023-02-27T20:53:28.680Z,-3.43
2023-02-27T20:58:31.594Z,-3.48
2023-02-27T21:03:38.473Z,-3.49
2023-02-27T21:08:44.131Z,-3.53
2023-02-27T21:13:46.920Z,-3.61
2023-02-27T21:18:51.711Z,-3.72
2023-02-27T21:23:53.762Z,-3.84
2023-02-27T21:29:01.113Z,-3.96
2023-02-27T21:34:06.782Z,-4.07
2023-02-27T21:39:15.330Z,-4.18
2023-02-27T21:44:20.355Z,-4.29
2023-02-27T21:49:27.798Z,-4.43
2023-02-27T21:54:29.725Z,-4.55
2023-02-27T21:59:31.921Z,-4.64
2023-02-27T22:04:34.128Z,-4.71
2023-02-27T22:09:36.056Z,-4.77
2023-02-27T22:14:38.444Z,-4.83
2023-02-27T22:19:40.484Z,-4.89
2023-02-27T22:24:42.505Z,-4.92
2023-02-27T22:29:44.500Z,-4.96
2023-02-27T22:34:46.387Z,-5.02
2023-02-27T22:39:48.421Z,-5.06
2023-02-27T22:44:50.450Z,-5.11
2023-02-27T22:49:52.658Z,-5.15
2023-02-27T22:54:54.768Z,-5.18
2023-02-27T22:59:56.800Z,-5.19
2023-02-27T23:04:59.972Z,-5.20
2023-02-27T23:10:01.933Z,-5.28
2023-02-27T23:15:04.504Z,-5.39
2023-02-27T23:20:06.722Z,-5.48
2023-02-27T23:25:11.453Z,-5.52
2023-02-27T23:30:14.653Z,-5.48
2023-02-27T23:35:22.030Z,-5.49
2023-02-27T23:40:26.774Z,-5.57
2023-02-27T23:45:28.744Z,-5.61
2023-02-27T23:50:34.647Z,-5.66
2023-02-27T23:55:37.901Z,-5.70
